sensor_id;sensor_type;location;lat;lon;timestamp;P1;durP1;ratioP1;P2;durP2;ratioP2
15716;SDS011;7960;50.908;4.204;2023-09-12T00:01:25;30.73;;;22.17;;
15716;SDS011;7960;50.908;4.204;2023-09-12T00:03:52;32.20;;;22.20;;
15716;SDS011;7960;50.908;4.204;2023-09-12T00:06:19;31.33;;;20.77;;
15716;SDS011;7960;50.908;4.204;2023-09-12T00:08:45;27.70;;;19.77;;
15716;SDS011;7960;50.908;4.204;2023-09-12T00:11:12;25.47;;;18.97;;
15716;SDS011;7960;50.908;4.204;2023-09-12T00:13:40;26.67;;;19.77;;
15716;SDS011;7960;50.908;4.204;2023-09-12T00:16:08;27.93;;;21.30;;
15716;SDS011;7960;50.908;4.204;2023-09-12T00:18:36;28.07;;;21.10;;
15716;SDS011;7960;50.908;4.204;2023-09-12T00:21:03;31.27;;;21.93;;
15716;SDS011;7960;50.908;4.204;2023-09-12T00:23:30;31.67;;;20.97;;
15716;SDS011;7960;50.908;4.204;2023-09-12T00:25:57;32.37;;;21.80;;
15716;SDS011;7960;50.908;4.204;2023-09-12T00:28:24;32.53;;;22.50;;
15716;SDS011;7960;50.908;4.204;2023-09-12T00:30:51;31.40;;;23.60;;
15716;SDS011;7960;50.908;4.204;2023-09-12T00:33:20;29.30;;;21.93;;
15716;SDS011;7960;50.908;4.204;2023-09-12T00:35:47;31.93;;;20.97;;
15716;SDS011;7960;50.908;4.204;2023-09-12T00:38:14;33.63;;;22.20;;
15716;SDS011;7960;50.908;4.204;2023-09-12T00:40:41;31.23;;;21.93;;
15716;SDS011;7960;50.908;4.204;2023-09-12T00:43:09;31.43;;;23.07;;
15716;SDS011;7960;50.908;4.204;2023-09-12T00:45:36;30.87;;;21.83;;
15716;SDS011;7960;50.908;4.204;2023-09-12T00:48:04;28.20;;;21.60;;
15716;SDS011;7960;50.908;4.204;2023-09-12T00:50:33;30.57;;;22.07;;
15716;SDS011;7960;50.908;4.204;2023-09-12T00:53:01;30.47;;;22.10;;
15716;SDS011;7960;50.908;4.204;2023-09-12T00:55:31;32.93;;;23.03;;
15716;SDS011;7960;50.908;4.204;2023-09-12T00:57:59;35.23;;;22.83;;
15716;SDS011;7960;50.908;4.204;2023-09-12T01:00:27;30.80;;;21.03;;
15716;SDS011;7960;50.908;4.204;2023-09-12T01:02:54;31.80;;;22.17;;
15716;SDS011;7960;50.908;4.204;2023-09-12T01:05:21;30.73;;;21.47;;
15716;SDS011;7960;50.908;4.204;2023-09-12T01:07:50;29.90;;;20.77;;
15716;SDS011;7960;50.908;4.204;2023-09-12T01:10:18;29.27;;;21.67;;
15716;SDS011;7960;50.908;4.204;2023-09-12T01:12:45;26.67;;;19.93;;
15716;SDS011;7960;50.908;4.204;2023-09-12T01:15:12;28.37;;;19.90;;
15716;SDS011;7960;50.908;4.204;2023-09-12T01:17:40;30.43;;;21.20;;
15716;SDS011;7960;50.908;4.204;2023-09-12T01:20:08;27.83;;;19.90;;
15716;SDS011;7960;50.908;4.204;2023-09-12T01:22:59;28.53;;;20.40;;
15716;SDS011;7960;50.908;4.204;2023-09-12T01:25:45;30.60;;;20.60;;
15716;SDS011;7960;50.908;4.204;2023-09-12T01:28:45;28.07;;;20.10;;
15716;SDS011;7960;50.908;4.204;2023-09-12T01:31:14;29.83;;;21.23;;
15716;SDS011;7960;50.908;4.204;2023-09-12T01:33:42;28.67;;;21.17;;
15716;SDS011;7960;50.908;4.204;2023-09-12T01:36:09;28.73;;;21.07;;
15716;SDS011;7960;50.908;4.204;2023-09-12T01:38:36;33.57;;;21.90;;
15716;SDS011;7960;50.908;4.204;2023-09-12T01:41:04;29.37;;;21.33;;
15716;SDS011;7960;50.908;4.204;2023-09-12T01:43:32;32.27;;;22.57;;
15716;SDS011;7960;50.908;4.204;2023-09-12T01:46:03;35.93;;;22.90;;
15716;SDS011;7960;50.908;4.204;2023-09-12T01:48:31;31.77;;;21.83;;
15716;SDS011;7960;50.908;4.204;2023-09-12T01:51:00;35.53;;;22.67;;
15716;SDS011;7960;50.908;4.204;2023-09-12T01:53:28;29.47;;;21.83;;
15716;SDS011;7960;50.908;4.204;2023-09-12T01:55:56;33.53;;;22.10;;
15716;SDS011;7960;50.908;4.204;2023-09-12T01:58:24;33.60;;;21.87;;
15716;SDS011;7960;50.908;4.204;2023-09-12T02:00:52;35.33;;;23.17;;
15716;SDS011;7960;50.908;4.204;2023-09-12T02:03:20;34.23;;;23.17;;
15716;SDS011;7960;50.908;4.204;2023-09-12T02:05:47;30.67;;;21.43;;
15716;SDS011;7960;50.908;4.204;2023-09-12T02:08:15;31.73;;;23.00;;
15716;SDS011;7960;50.908;4.204;2023-09-12T02:10:41;32.33;;;21.83;;
15716;SDS011;7960;50.908;4.204;2023-09-12T02:13:08;33.97;;;21.77;;
15716;SDS011;7960;50.908;4.204;2023-09-12T02:15:35;30.23;;;21.80;;
15716;SDS011;7960;50.908;4.204;2023-09-12T02:18:02;31.63;;;22.47;;
15716;SDS011;7960;50.908;4.204;2023-09-12T02:20:31;33.37;;;22.33;;
15716;SDS011;7960;50.908;4.204;2023-09-12T02:22:58;31.47;;;21.50;;
15716;SDS011;7960;50.908;4.204;2023-09-12T02:25:25;31.07;;;21.17;;
15716;SDS011;7960;50.908;4.204;2023-09-12T02:27:52;29.80;;;21.40;;
15716;SDS011;7960;50.908;4.204;2023-09-12T02:30:19;30.43;;;21.60;;
15716;SDS011;7960;50.908;4.204;2023-09-12T02:32:46;33.50;;;20.50;;
15716;SDS011;7960;50.908;4.204;2023-09-12T02:35:13;31.07;;;21.43;;
15716;SDS011;7960;50.908;4.204;2023-09-12T02:37:41;30.47;;;21.13;;
15716;SDS011;7960;50.908;4.204;2023-09-12T02:40:08;29.97;;;20.13;;
15716;SDS011;7960;50.908;4.204;2023-09-12T02:42:36;28.77;;;19.67;;
15716;SDS011;7960;50.908;4.204;2023-09-12T02:45:04;27.17;;;20.27;;
15716;SDS011;7960;50.908;4.204;2023-09-12T02:47:31;27.30;;;19.57;;
15716;SDS011;7960;50.908;4.204;2023-09-12T02:49:58;29.20;;;20.10;;
15716;SDS011;7960;50.908;4.204;2023-09-12T02:52:25;28.67;;;19.97;;
15716;SDS011;7960;50.908;4.204;2023-09-12T02:54:54;27.97;;;19.97;;
15716;SDS011;7960;50.908;4.204;2023-09-12T02:57:21;30.47;;;22.07;;
15716;SDS011;7960;50.908;4.204;2023-09-12T02:59:48;30.17;;;21.13;;
15716;SDS011;7960;50.908;4.204;2023-09-12T03:02:15;28.63;;;20.30;;
15716;SDS011;7960;50.908;4.204;2023-09-12T03:04:42;32.17;;;21.17;;
15716;SDS011;7960;50.908;4.204;2023-09-12T03:07:09;31.27;;;20.97;;
15716;SDS011;7960;50.908;4.204;2023-09-12T03:09:35;34.17;;;22.57;;
15716;SDS011;7960;50.908;4.204;2023-09-12T03:12:05;32.77;;;21.57;;
15716;SDS011;7960;50.908;4.204;2023-09-12T03:14:32;31.00;;;21.70;;
15716;SDS011;7960;50.908;4.204;2023-09-12T03:16:59;33.33;;;21.33;;
15716;SDS011;7960;50.908;4.204;2023-09-12T03:19:26;29.83;;;20.87;;
15716;SDS011;7960;50.908;4.204;2023-09-12T03:21:53;28.17;;;21.47;;
15716;SDS011;7960;50.908;4.204;2023-09-12T03:24:20;28.47;;;20.50;;
15716;SDS011;7960;50.908;4.204;2023-09-12T03:26:49;29.23;;;20.33;;
15716;SDS011;7960;50.908;4.204;2023-09-12T03:29:18;29.23;;;20.10;;
15716;SDS011;7960;50.908;4.204;2023-09-12T03:31:45;30.97;;;20.70;;
15716;SDS011;7960;50.908;4.204;2023-09-12T03:34:12;28.00;;;19.53;;
15716;SDS011;7960;50.908;4.204;2023-09-12T03:36:39;28.20;;;19.97;;
15716;SDS011;7960;50.908;4.204;2023-09-12T03:39:06;30.33;;;20.07;;
15716;SDS011;7960;50.908;4.204;2023-09-12T03:41:33;29.00;;;20.40;;
15716;SDS011;7960;50.908;4.204;2023-09-12T03:44:00;26.30;;;19.23;;
15716;SDS011;7960;50.908;4.204;2023-09-12T03:46:29;27.50;;;20.17;;
15716;SDS011;7960;50.908;4.204;2023-09-12T03:48:56;27.30;;;18.67;;
15716;SDS011;7960;50.908;4.204;2023-09-12T03:51:23;29.60;;;20.13;;
15716;SDS011;7960;50.908;4.204;2023-09-12T03:53:50;29.57;;;19.30;;
15716;SDS011;7960;50.908;4.204;2023-09-12T03:56:16;30.07;;;19.73;;
15716;SDS011;7960;50.908;4.204;2023-09-12T03:58:45;28.70;;;20.27;;
15716;SDS011;7960;50.908;4.204;2023-09-12T04:01:12;29.07;;;19.20;;
15716;SDS011;7960;50.908;4.204;2023-09-12T04:03:40;28.33;;;20.53;;
15716;SDS011;7960;50.908;4.204;2023-09-12T04:06:07;26.10;;;19.60;;
15716;SDS011;7960;50.908;4.204;2023-09-12T04:08:34;28.60;;;18.90;;
15716;SDS011;7960;50.908;4.204;2023-09-12T04:11:01;27.13;;;18.53;;
15716;SDS011;7960;50.908;4.204;2023-09-12T04:13:28;24.63;;;19.27;;
15716;SDS011;7960;50.908;4.204;2023-09-12T04:15:55;22.60;;;17.83;;
15716;SDS011;7960;50.908;4.204;2023-09-12T04:18:23;21.77;;;16.73;;
15716;SDS011;7960;50.908;4.204;2023-09-12T04:20:51;26.90;;;16.93;;
15716;SDS011;7960;50.908;4.204;2023-09-12T04:23:20;24.87;;;16.67;;
15716;SDS011;7960;50.908;4.204;2023-09-12T04:25:47;22.33;;;16.67;;
15716;SDS011;7960;50.908;4.204;2023-09-12T04:28:14;24.60;;;16.97;;
15716;SDS011;7960;50.908;4.204;2023-09-12T04:30:41;25.30;;;16.83;;
15716;SDS011;7960;50.908;4.204;2023-09-12T04:33:08;25.90;;;17.07;;
15716;SDS011;7960;50.908;4.204;2023-09-12T04:35:35;24.47;;;17.70;;
15716;SDS011;7960;50.908;4.204;2023-09-12T04:38:03;27.40;;;18.27;;
15716;SDS011;7960;50.908;4.204;2023-09-12T04:40:30;25.30;;;17.67;;
15716;SDS011;7960;50.908;4.204;2023-09-12T04:42:58;26.03;;;17.87;;
15716;SDS011;7960;50.908;4.204;2023-09-12T04:45:25;33.80;;;19.53;;
15716;SDS011;7960;50.908;4.204;2023-09-12T04:47:51;26.13;;;18.13;;
15716;SDS011;7960;50.908;4.204;2023-09-12T04:50:18;30.13;;;18.00;;
15716;SDS011;7960;50.908;4.204;2023-09-12T04:52:45;25.73;;;18.53;;
15716;SDS011;7960;50.908;4.204;2023-09-12T04:55:13;25.50;;;17.17;;
15716;SDS011;7960;50.908;4.204;2023-09-12T04:57:40;26.60;;;17.47;;
15716;SDS011;7960;50.908;4.204;2023-09-12T05:00:08;22.90;;;16.80;;
15716;SDS011;7960;50.908;4.204;2023-09-12T05:02:36;23.90;;;17.27;;
15716;SDS011;7960;50.908;4.204;2023-09-12T05:05:03;27.63;;;17.57;;
15716;SDS011;7960;50.908;4.204;2023-09-12T05:07:31;28.40;;;18.53;;
15716;SDS011;7960;50.908;4.204;2023-09-12T05:09:58;27.93;;;18.47;;
15716;SDS011;7960;50.908;4.204;2023-09-12T05:12:27;26.97;;;18.60;;
15716;SDS011;7960;50.908;4.204;2023-09-12T05:14:54;26.57;;;18.90;;
15716;SDS011;7960;50.908;4.204;2023-09-12T05:17:21;31.10;;;19.83;;
15716;SDS011;7960;50.908;4.204;2023-09-12T05:19:48;30.50;;;19.93;;
15716;SDS011;7960;50.908;4.204;2023-09-12T05:22:14;28.97;;;19.03;;
15716;SDS011;7960;50.908;4.204;2023-09-12T05:24:41;28.13;;;19.97;;
15716;SDS011;7960;50.908;4.204;2023-09-12T05:27:08;28.53;;;19.47;;
15716;SDS011;7960;50.908;4.204;2023-09-12T05:29:38;28.97;;;18.47;;
15716;SDS011;7960;50.908;4.204;2023-09-12T05:32:05;27.20;;;19.17;;
15716;SDS011;7960;50.908;4.204;2023-09-12T05:34:32;31.77;;;20.80;;
15716;SDS011;7960;50.908;4.204;2023-09-12T05:36:59;29.80;;;21.23;;
15716;SDS011;7960;50.908;4.204;2023-09-12T05:39:26;28.97;;;21.73;;
15716;SDS011;7960;50.908;4.204;2023-09-12T05:41:53;30.37;;;20.60;;
15716;SDS011;7960;50.908;4.204;2023-09-12T05:44:20;29.23;;;20.53;;
15716;SDS011;7960;50.908;4.204;2023-09-12T05:46:48;29.27;;;20.33;;
15716;SDS011;7960;50.908;4.204;2023-09-12T05:49:15;31.10;;;20.03;;
15716;SDS011;7960;50.908;4.204;2023-09-12T05:51:42;30.37;;;19.33;;
15716;SDS011;7960;50.908;4.204;2023-09-12T05:54:09;29.87;;;20.27;;
15716;SDS011;7960;50.908;4.204;2023-09-12T05:56:38;26.23;;;19.60;;
15716;SDS011;7960;50.908;4.204;2023-09-12T05:59:05;30.70;;;20.60;;
15716;SDS011;7960;50.908;4.204;2023-09-12T06:01:32;30.97;;;20.83;;
15716;SDS011;7960;50.908;4.204;2023-09-12T06:04:00;32.13;;;20.87;;
15716;SDS011;7960;50.908;4.204;2023-09-12T06:06:27;30.97;;;21.23;;
15716;SDS011;7960;50.908;4.204;2023-09-12T06:08:54;29.40;;;20.83;;
15716;SDS011;7960;50.908;4.204;2023-09-12T06:11:23;35.13;;;22.73;;
15716;SDS011;7960;50.908;4.204;2023-09-12T06:13:50;33.47;;;21.53;;
15716;SDS011;7960;50.908;4.204;2023-09-12T06:16:17;30.90;;;21.20;;
15716;SDS011;7960;50.908;4.204;2023-09-12T06:18:43;32.10;;;22.20;;
15716;SDS011;7960;50.908;4.204;2023-09-12T06:21:12;31.67;;;21.47;;
15716;SDS011;7960;50.908;4.204;2023-09-12T06:23:39;32.47;;;21.23;;
15716;SDS011;7960;50.908;4.204;2023-09-12T06:26:05;32.70;;;20.93;;
15716;SDS011;7960;50.908;4.204;2023-09-12T06:28:32;30.93;;;20.90;;
15716;SDS011;7960;50.908;4.204;2023-09-12T06:30:59;28.67;;;20.93;;
15716;SDS011;7960;50.908;4.204;2023-09-12T06:33:26;30.57;;;20.97;;
15716;SDS011;7960;50.908;4.204;2023-09-12T06:35:53;31.93;;;21.50;;
15716;SDS011;7960;50.908;4.204;2023-09-12T06:38:22;32.03;;;22.53;;
15716;SDS011;7960;50.908;4.204;2023-09-12T06:40:49;30.50;;;20.93;;
15716;SDS011;7960;50.908;4.204;2023-09-12T06:43:16;29.70;;;21.50;;
15716;SDS011;7960;50.908;4.204;2023-09-12T06:45:44;33.97;;;22.73;;
15716;SDS011;7960;50.908;4.204;2023-09-12T06:48:11;30.73;;;22.10;;
15716;SDS011;7960;50.908;4.204;2023-09-12T06:50:38;34.93;;;21.50;;
15716;SDS011;7960;50.908;4.204;2023-09-12T06:53:05;30.20;;;20.80;;
15716;SDS011;7960;50.908;4.204;2023-09-12T06:55:33;36.47;;;21.20;;
15716;SDS011;7960;50.908;4.204;2023-09-12T06:58:00;32.90;;;21.17;;
15716;SDS011;7960;50.908;4.204;2023-09-12T07:00:28;29.27;;;21.60;;
15716;SDS011;7960;50.908;4.204;2023-09-12T07:02:56;32.10;;;21.23;;
15716;SDS011;7960;50.908;4.204;2023-09-12T07:05:23;30.67;;;21.50;;
15716;SDS011;7960;50.908;4.204;2023-09-12T07:07:50;35.70;;;21.83;;
15716;SDS011;7960;50.908;4.204;2023-09-12T07:10:18;30.73;;;21.47;;
15716;SDS011;7960;50.908;4.204;2023-09-12T07:12:46;32.83;;;22.23;;
15716;SDS011;7960;50.908;4.204;2023-09-12T07:15:13;33.73;;;21.83;;
15716;SDS011;7960;50.908;4.204;2023-09-12T07:17:40;34.20;;;22.40;;
15716;SDS011;7960;50.908;4.204;2023-09-12T07:20:07;34.83;;;22.60;;
15716;SDS011;7960;50.908;4.204;2023-09-12T07:22:36;34.30;;;21.67;;
15716;SDS011;7960;50.908;4.204;2023-09-12T07:25:05;35.67;;;22.80;;
15716;SDS011;7960;50.908;4.204;2023-09-12T07:27:34;33.77;;;23.63;;
15716;SDS011;7960;50.908;4.204;2023-09-12T07:30:02;36.57;;;23.77;;
15716;SDS011;7960;50.908;4.204;2023-09-12T07:32:30;38.60;;;24.47;;
15716;SDS011;7960;50.908;4.204;2023-09-12T07:34:56;36.90;;;24.97;;
15716;SDS011;7960;50.908;4.204;2023-09-12T07:37:23;33.90;;;24.57;;
15716;SDS011;7960;50.908;4.204;2023-09-12T07:39:50;43.50;;;25.67;;
15716;SDS011;7960;50.908;4.204;2023-09-12T07:42:20;35.13;;;24.00;;
15716;SDS011;7960;50.908;4.204;2023-09-12T07:44:48;37.87;;;24.97;;
15716;SDS011;7960;50.908;4.204;2023-09-12T07:47:16;36.47;;;23.83;;
15716;SDS011;7960;50.908;4.204;2023-09-12T07:49:43;34.20;;;23.27;;
15716;SDS011;7960;50.908;4.204;2023-09-12T07:52:10;34.83;;;22.27;;
15716;SDS011;7960;50.908;4.204;2023-09-12T07:54:37;34.63;;;23.03;;
15716;SDS011;7960;50.908;4.204;2023-09-12T07:57:04;40.73;;;24.50;;
15716;SDS011;7960;50.908;4.204;2023-09-12T07:59:31;30.97;;;20.13;;
15716;SDS011;7960;50.908;4.204;2023-09-12T08:01:57;33.23;;;21.43;;
15716;SDS011;7960;50.908;4.204;2023-09-12T08:04:26;31.93;;;20.87;;
15716;SDS011;7960;50.908;4.204;2023-09-12T08:06:53;34.73;;;21.97;;
15716;SDS011;7960;50.908;4.204;2023-09-12T08:09:20;35.17;;;22.10;;
15716;SDS011;7960;50.908;4.204;2023-09-12T08:11:47;34.57;;;21.13;;
15716;SDS011;7960;50.908;4.204;2023-09-12T08:14:13;38.43;;;20.73;;
15716;SDS011;7960;50.908;4.204;2023-09-12T08:16:40;30.27;;;20.87;;
15716;SDS011;7960;50.908;4.204;2023-09-12T08:19:07;34.03;;;21.67;;
15716;SDS011;7960;50.908;4.204;2023-09-12T08:21:35;30.43;;;20.53;;
15716;SDS011;7960;50.908;4.204;2023-09-12T08:24:02;32.73;;;21.03;;
15716;SDS011;7960;50.908;4.204;2023-09-12T08:26:30;31.90;;;20.43;;
15716;SDS011;7960;50.908;4.204;2023-09-12T08:28:57;32.77;;;21.00;;
15716;SDS011;7960;50.908;4.204;2023-09-12T08:31:24;32.60;;;21.17;;
15716;SDS011;7960;50.908;4.204;2023-09-12T08:33:52;32.97;;;21.13;;
15716;SDS011;7960;50.908;4.204;2023-09-12T08:36:19;33.03;;;21.00;;
15716;SDS011;7960;50.908;4.204;2023-09-12T08:38:47;35.30;;;19.80;;
15716;SDS011;7960;50.908;4.204;2023-09-12T08:41:14;31.73;;;18.97;;
15716;SDS011;7960;50.908;4.204;2023-09-12T08:43:41;30.23;;;19.13;;
15716;SDS011;7960;50.908;4.204;2023-09-12T08:46:09;27.90;;;19.23;;
15716;SDS011;7960;50.908;4.204;2023-09-12T08:48:38;29.63;;;19.10;;
15716;SDS011;7960;50.908;4.204;2023-09-12T08:51:06;30.90;;;19.60;;
15716;SDS011;7960;50.908;4.204;2023-09-12T08:53:34;27.00;;;18.47;;
15716;SDS011;7960;50.908;4.204;2023-09-12T08:56:03;31.17;;;20.83;;
15716;SDS011;7960;50.908;4.204;2023-09-12T08:58:31;26.23;;;18.73;;
15716;SDS011;7960;50.908;4.204;2023-09-12T09:00:59;28.07;;;18.83;;
15716;SDS011;7960;50.908;4.204;2023-09-12T09:03:28;31.20;;;18.43;;
15716;SDS011;7960;50.908;4.204;2023-09-12T09:05:55;27.30;;;18.13;;
15716;SDS011;7960;50.908;4.204;2023-09-12T09:08:26;27.00;;;17.97;;
15716;SDS011;7960;50.908;4.204;2023-09-12T09:10:54;29.30;;;18.40;;
15716;SDS011;7960;50.908;4.204;2023-09-12T09:13:23;30.93;;;18.70;;
15716;SDS011;7960;50.908;4.204;2023-09-12T09:15:59;30.00;;;19.43;;
15716;SDS011;7960;50.908;4.204;2023-09-12T09:18:49;30.67;;;20.23;;
15716;SDS011;7960;50.908;4.204;2023-09-12T09:21:17;31.80;;;21.30;;
15716;SDS011;7960;50.908;4.204;2023-09-12T09:23:45;30.40;;;20.13;;
15716;SDS011;7960;50.908;4.204;2023-09-12T09:26:12;31.17;;;20.90;;
15716;SDS011;7960;50.908;4.204;2023-09-12T09:28:41;26.57;;;18.17;;
15716;SDS011;7960;50.908;4.204;2023-09-12T09:31:09;28.03;;;19.43;;
15716;SDS011;7960;50.908;4.204;2023-09-12T09:33:37;31.30;;;20.43;;
15716;SDS011;7960;50.908;4.204;2023-09-12T09:36:05;31.23;;;20.37;;
15716;SDS011;7960;50.908;4.204;2023-09-12T09:38:33;30.93;;;20.40;;
15716;SDS011;7960;50.908;4.204;2023-09-12T09:41:03;29.50;;;19.20;;
15716;SDS011;7960;50.908;4.204;2023-09-12T09:43:31;29.47;;;19.23;;
15716;SDS011;7960;50.908;4.204;2023-09-12T09:45:59;31.47;;;20.33;;
15716;SDS011;7960;50.908;4.204;2023-09-12T09:48:26;31.93;;;20.23;;
15716;SDS011;7960;50.908;4.204;2023-09-12T09:50:53;32.13;;;20.37;;
15716;SDS011;7960;50.908;4.204;2023-09-12T09:53:27;31.90;;;20.37;;
15716;SDS011;7960;50.908;4.204;2023-09-12T09:56:08;24.67;;;17.70;;
15716;SDS011;7960;50.908;4.204;2023-09-12T09:58:36;29.33;;;16.83;;
15716;SDS011;7960;50.908;4.204;2023-09-12T10:01:09;26.97;;;18.47;;
15716;SDS011;7960;50.908;4.204;2023-09-12T10:03:38;26.23;;;16.40;;
15716;SDS011;7960;50.908;4.204;2023-09-12T10:06:06;25.33;;;15.57;;
15716;SDS011;7960;50.908;4.204;2023-09-12T10:08:34;32.43;;;19.03;;
15716;SDS011;7960;50.908;4.204;2023-09-12T10:11:03;27.20;;;17.67;;
15716;SDS011;7960;50.908;4.204;2023-09-12T10:13:30;23.77;;;16.73;;
15716;SDS011;7960;50.908;4.204;2023-09-12T10:15:59;25.03;;;16.73;;
15716;SDS011;7960;50.908;4.204;2023-09-12T10:18:32;24.03;;;15.83;;
15716;SDS011;7960;50.908;4.204;2023-09-12T10:21:08;19.37;;;13.43;;
15716;SDS011;7960;50.908;4.204;2023-09-12T10:23:41;19.83;;;13.60;;
15716;SDS011;7960;50.908;4.204;2023-09-12T10:26:11;16.60;;;12.00;;
15716;SDS011;7960;50.908;4.204;2023-09-12T10:28:40;17.97;;;12.90;;
15716;SDS011;7960;50.908;4.204;2023-09-12T10:31:08;17.33;;;12.40;;
15716;SDS011;7960;50.908;4.204;2023-09-12T10:33:38;16.87;;;9.73;;
15716;SDS011;7960;50.908;4.204;2023-09-12T10:36:06;12.43;;;7.97;;
15716;SDS011;7960;50.908;4.204;2023-09-12T10:38:36;14.20;;;9.30;;
15716;SDS011;7960;50.908;4.204;2023-09-12T10:41:08;13.10;;;9.90;;
15716;SDS011;7960;50.908;4.204;2023-09-12T10:43:38;15.87;;;10.60;;
15716;SDS011;7960;50.908;4.204;2023-09-12T10:46:07;14.43;;;8.50;;
15716;SDS011;7960;50.908;4.204;2023-09-12T10:48:34;9.60;;;6.93;;
15716;SDS011;7960;50.908;4.204;2023-09-12T10:51:03;7.90;;;6.23;;
15716;SDS011;7960;50.908;4.204;2023-09-12T10:53:32;9.80;;;7.47;;
15716;SDS011;7960;50.908;4.204;2023-09-12T10:56:00;11.00;;;6.63;;
15716;SDS011;7960;50.908;4.204;2023-09-12T10:58:28;10.50;;;7.23;;
15716;SDS011;7960;50.908;4.204;2023-09-12T11:01:21;11.03;;;6.23;;
15716;SDS011;7960;50.908;4.204;2023-09-12T11:03:50;9.00;;;7.30;;
15716;SDS011;7960;50.908;4.204;2023-09-12T11:06:22;8.80;;;6.97;;
15716;SDS011;7960;50.908;4.204;2023-09-12T11:11:45;9.17;;;7.37;;
15716;SDS011;7960;50.908;4.204;2023-09-12T11:14:14;10.70;;;6.50;;
15716;SDS011;7960;50.908;4.204;2023-09-12T11:16:41;8.00;;;6.13;;
15716;SDS011;7960;50.908;4.204;2023-09-12T11:19:15;11.10;;;6.30;;
15716;SDS011;7960;50.908;4.204;2023-09-12T11:21:46;11.20;;;6.90;;
15716;SDS011;7960;50.908;4.204;2023-09-12T11:24:14;8.50;;;6.57;;
15716;SDS011;7960;50.908;4.204;2023-09-12T11:26:54;11.10;;;7.67;;
15716;SDS011;7960;50.908;4.204;2023-09-12T11:29:26;11.00;;;6.87;;
15716;SDS011;7960;50.908;4.204;2023-09-12T11:31:54;10.00;;;7.03;;
15716;SDS011;7960;50.908;4.204;2023-09-12T11:34:24;11.25;;;6.80;;
15716;SDS011;7960;50.908;4.204;2023-09-12T11:36:55;8.43;;;6.90;;
15716;SDS011;7960;50.908;4.204;2023-09-12T11:39:27;9.27;;;6.70;;
15716;SDS011;7960;50.908;4.204;2023-09-12T11:41:56;10.60;;;6.13;;
15716;SDS011;7960;50.908;4.204;2023-09-12T11:44:24;9.40;;;6.57;;
15716;SDS011;7960;50.908;4.204;2023-09-12T11:46:52;8.80;;;6.53;;
15716;SDS011;7960;50.908;4.204;2023-09-12T11:49:19;7.43;;;5.95;;
15716;SDS011;7960;50.908;4.204;2023-09-12T11:51:47;8.70;;;6.70;;
15716;SDS011;7960;50.908;4.204;2023-09-12T11:54:20;9.57;;;6.45;;
15716;SDS011;7960;50.908;4.204;2023-09-12T11:56:51;8.30;;;6.43;;
15716;SDS011;7960;50.908;4.204;2023-09-12T11:59:21;7.95;;;6.40;;
15716;SDS011;7960;50.908;4.204;2023-09-12T12:01:48;7.68;;;6.53;;
15716;SDS011;7960;50.908;4.204;2023-09-12T12:04:16;7.72;;;6.15;;
15716;SDS011;7960;50.908;4.204;2023-09-12T12:06:43;7.50;;;6.30;;
15716;SDS011;7960;50.908;4.204;2023-09-12T12:09:13;8.45;;;6.38;;
15716;SDS011;7960;50.908;4.204;2023-09-12T12:11:44;9.50;;;6.63;;
15716;SDS011;7960;50.908;4.204;2023-09-12T12:14:12;8.38;;;6.78;;
15716;SDS011;7960;50.908;4.204;2023-09-12T12:16:40;9.85;;;7.35;;
15716;SDS011;7960;50.908;4.204;2023-09-12T12:19:08;11.43;;;7.25;;
15716;SDS011;7960;50.908;4.204;2023-09-12T12:21:36;8.38;;;7.45;;
15716;SDS011;7960;50.908;4.204;2023-09-12T12:24:04;10.55;;;8.23;;
15716;SDS011;7960;50.908;4.204;2023-09-12T12:26:33;15.65;;;7.88;;
15716;SDS011;7960;50.908;4.204;2023-09-12T12:29:02;11.02;;;8.40;;
15716;SDS011;7960;50.908;4.204;2023-09-12T12:31:30;11.18;;;8.73;;
15716;SDS011;7960;50.908;4.204;2023-09-12T12:33:57;11.57;;;9.00;;
15716;SDS011;7960;50.908;4.204;2023-09-12T12:36:24;14.68;;;10.10;;
15716;SDS011;7960;50.908;4.204;2023-09-12T12:38:52;15.05;;;9.93;;
15716;SDS011;7960;50.908;4.204;2023-09-12T12:41:22;14.73;;;10.75;;
15716;SDS011;7960;50.908;4.204;2023-09-12T12:43:51;21.30;;;10.85;;
15716;SDS011;7960;50.908;4.204;2023-09-12T12:46:21;12.75;;;10.32;;
15716;SDS011;7960;50.908;4.204;2023-09-12T12:48:48;17.92;;;11.98;;
15716;SDS011;7960;50.908;4.204;2023-09-12T12:51:15;16.33;;;10.32;;
15716;SDS011;7960;50.908;4.204;2023-09-12T12:53:44;13.57;;;9.57;;
15716;SDS011;7960;50.908;4.204;2023-09-12T12:56:13;12.70;;;9.38;;
15716;SDS011;7960;50.908;4.204;2023-09-12T12:58:45;12.38;;;9.38;;
15716;SDS011;7960;50.908;4.204;2023-09-12T13:01:13;12.75;;;9.98;;
15716;SDS011;7960;50.908;4.204;2023-09-12T13:03:42;17.77;;;10.77;;
15716;SDS011;7960;50.908;4.204;2023-09-12T13:06:10;12.75;;;9.50;;
15716;SDS011;7960;50.908;4.204;2023-09-12T13:08:42;12.82;;;9.80;;
15716;SDS011;7960;50.908;4.204;2023-09-12T13:11:11;14.07;;;10.23;;
15716;SDS011;7960;50.908;4.204;2023-09-12T13:13:39;15.05;;;10.63;;
15716;SDS011;7960;50.908;4.204;2023-09-12T13:16:08;11.87;;;10.00;;
15716;SDS011;7960;50.908;4.204;2023-09-12T13:18:36;14.40;;;9.77;;
15716;SDS011;7960;50.908;4.204;2023-09-12T13:21:05;13.63;;;9.43;;
15716;SDS011;7960;50.908;4.204;2023-09-12T13:23:33;14.93;;;10.00;;
15716;SDS011;7960;50.908;4.204;2023-09-12T13:26:00;14.13;;;9.27;;
15716;SDS011;7960;50.908;4.204;2023-09-12T13:28:28;12.18;;;9.10;;
15716;SDS011;7960;50.908;4.204;2023-09-12T13:30:55;13.20;;;8.50;;
15716;SDS011;7960;50.908;4.204;2023-09-12T13:33:23;11.80;;;9.40;;
15716;SDS011;7960;50.908;4.204;2023-09-12T13:35:50;11.02;;;9.07;;
15716;SDS011;7960;50.908;4.204;2023-09-12T13:38:19;10.93;;;8.70;;
15716;SDS011;7960;50.908;4.204;2023-09-12T13:40:47;10.53;;;8.80;;
15716;SDS011;7960;50.908;4.204;2023-09-12T13:43:14;13.73;;;8.43;;
15716;SDS011;7960;50.908;4.204;2023-09-12T13:45:41;12.63;;;7.90;;
15716;SDS011;7960;50.908;4.204;2023-09-12T13:48:08;11.20;;;8.73;;
15716;SDS011;7960;50.908;4.204;2023-09-12T13:50:37;10.03;;;8.40;;
15716;SDS011;7960;50.908;4.204;2023-09-12T13:53:08;8.43;;;7.57;;
15716;SDS011;7960;50.908;4.204;2023-09-12T13:55:37;11.37;;;7.70;;
15716;SDS011;7960;50.908;4.204;2023-09-12T13:58:04;9.63;;;8.70;;
15716;SDS011;7960;50.908;4.204;2023-09-12T14:00:32;8.27;;;7.37;;
15716;SDS011;7960;50.908;4.204;2023-09-12T14:03:00;11.10;;;7.50;;
15716;SDS011;7960;50.908;4.204;2023-09-12T14:05:29;11.73;;;7.77;;
15716;SDS011;7960;50.908;4.204;2023-09-12T14:07:56;7.83;;;6.90;;
15716;SDS011;7960;50.908;4.204;2023-09-12T14:10:23;8.57;;;7.03;;
15716;SDS011;7960;50.908;4.204;2023-09-12T14:12:51;8.00;;;7.20;;
15716;SDS011;7960;50.908;4.204;2023-09-12T14:15:18;9.20;;;7.47;;
15716;SDS011;7960;50.908;4.204;2023-09-12T14:17:45;8.37;;;7.23;;
15716;SDS011;7960;50.908;4.204;2023-09-12T14:20:12;8.33;;;7.20;;
15716;SDS011;7960;50.908;4.204;2023-09-12T14:22:40;8.67;;;7.60;;
15716;SDS011;7960;50.908;4.204;2023-09-12T14:25:08;9.57;;;8.10;;
15716;SDS011;7960;50.908;4.204;2023-09-12T14:27:39;8.77;;;7.30;;
15716;SDS011;7960;50.908;4.204;2023-09-12T14:30:09;10.40;;;8.27;;
15716;SDS011;7960;50.908;4.204;2023-09-12T14:32:38;10.47;;;7.67;;
15716;SDS011;7960;50.908;4.204;2023-09-12T14:35:06;11.97;;;7.83;;
15716;SDS011;7960;50.908;4.204;2023-09-12T14:37:33;12.23;;;9.30;;
15716;SDS011;7960;50.908;4.204;2023-09-12T14:40:02;16.80;;;8.83;;
15716;SDS011;7960;50.908;4.204;2023-09-12T14:42:32;13.10;;;9.00;;
15716;SDS011;7960;50.908;4.204;2023-09-12T14:44:59;12.53;;;9.23;;
15716;SDS011;7960;50.908;4.204;2023-09-12T14:47:27;14.27;;;9.53;;